createdAt,value
2023-05-06T00:00:42.923Z,2.60
2023-05-06T00:03:45.849Z,2.53
2023-05-06T00:06:48.961Z,2.20
2023-05-06T00:09:51.739Z,2.30
2023-05-06T00:12:53.590Z,2.10
2023-05-06T00:15:56.787Z,1.95
2023-05-06T00:18:58.918Z,2.08
2023-05-06T00:22:00.807Z,2.25
2023-05-06T00:25:03.973Z,2.30
2023-05-06T00:28:05.697Z,2.55
2023-05-06T00:31:09.764Z,2.38
2023-05-06T00:34:11.553Z,2.10
2023-05-06T00:37:13.368Z,2.40
2023-05-06T00:40:15.710Z,2.85
2023-05-06T00:43:17.626Z,2.35
2023-05-06T00:46:20.953Z,2.40
2023-05-06T00:49:23.927Z,2.72
2023-05-06T00:52:26.237Z,2.63
2023-05-06T00:55:28.120Z,2.72
2023-05-06T00:58:31.232Z,2.33
2023-05-06T01:01:34.509Z,2.30
2023-05-06T01:04:36.569Z,2.20
2023-05-06T01:07:46.464Z,2.33
2023-05-06T01:10:53.735Z,2.95
2023-05-06T01:14:01.493Z,2.58
2023-05-06T01:17:08.041Z,2.60
2023-05-06T01:20:15.369Z,3.15
2023-05-06T01:23:19.032Z,2.47
2023-05-06T01:26:22.357Z,2.20
2023-05-06T01:29:24.314Z,3.05
2023-05-06T01:32:40.489Z,2.72
2023-05-06T01:35:55.007Z,2.55
2023-05-06T01:39:07.760Z,2.45
2023-05-06T01:42:13.855Z,3.00
2023-05-06T01:45:17.172Z,2.53
2023-05-06T01:48:20.293Z,2.50
2023-05-06T01:51:23.045Z,3.28
2023-05-06T01:54:26.203Z,2.25
2023-05-06T01:57:28.690Z,2.65
2023-05-06T02:00:30.797Z,6.05
2023-05-06T02:03:32.675Z,3.33
2023-05-06T02:06:35.449Z,2.30
2023-05-06T02:09:38.723Z,2.20
2023-05-06T02:12:41.417Z,2.42
2023-05-06T02:15:43.373Z,2.80
2023-05-06T02:18:45.884Z,2.40
2023-05-06T02:21:47.720Z,2.25
2023-05-06T02:24:51.669Z,2.38
2023-05-06T02:27:53.519Z,2.78
2023-05-06T02:30:56.646Z,2.40
2023-05-06T02:33:58.437Z,2.10
2023-05-06T02:37:00.278Z,2.60
2023-05-06T02:40:04.810Z,2.40
2023-05-06T02:43:07.270Z,2.58
2023-05-06T02:46:09.145Z,2.70
2023-05-06T02:49:11.256Z,2.58
2023-05-06T02:52:13.126Z,2.28
2023-05-06T02:55:16.682Z,2.60
2023-05-06T02:58:18.519Z,2.72
2023-05-06T03:01:21.386Z,2.33
2023-05-06T03:04:23.263Z,2.95
2023-05-06T03:07:25.354Z,3.17
2023-05-06T03:10:28.575Z,2.65
2023-05-06T03:13:30.393Z,2.65
2023-05-06T03:16:33.358Z,2.78
2023-05-06T03:19:35.135Z,2.85
2023-05-06T03:22:37.005Z,2.55
2023-05-06T03:25:41.064Z,2.83
2023-05-06T03:28:44.703Z,2.60
2023-05-06T03:31:49.504Z,2.80
2023-05-06T03:34:51.345Z,3.08
2023-05-06T03:37:54.052Z,3.05
2023-05-06T03:40:57.270Z,3.30
2023-05-06T03:43:59.050Z,3.75
2023-05-06T03:47:01.070Z,3.22
2023-05-06T03:50:03.001Z,3.30
2023-05-06T03:53:05.580Z,3.35
2023-05-06T03:56:08.976Z,3.17
2023-05-06T03:59:11.268Z,3.13
2023-05-06T04:02:14.262Z,3.08
2023-05-06T04:05:17.317Z,3.13
2023-05-06T04:08:19.138Z,3.40
2023-05-06T04:11:22.360Z,3.10
2023-05-06T04:14:24.213Z,3.47
2023-05-06T04:17:26.120Z,3.60
2023-05-06T04:20:28.160Z,3.00
2023-05-06T04:23:29.937Z,3.05
2023-05-06T04:26:33.639Z,3.25
2023-05-06T04:29:36.018Z,4.78
2023-05-06T04:32:38.741Z,2.83
2023-05-06T04:35:41.228Z,3.10
2023-05-06T04:38:42.998Z,3.08
2023-05-06T04:41:46.420Z,3.38
2023-05-06T04:44:48.920Z,3.05
2023-05-06T04:47:52.432Z,3.58
2023-05-06T04:50:54.251Z,2.60
2023-05-06T04:53:57.408Z,3.00
2023-05-06T04:57:01.034Z,2.90
2023-05-06T05:00:03.612Z,3.28
2023-05-06T05:03:05.561Z,3.92
2023-05-06T05:06:07.787Z,2.75
2023-05-06T05:09:10.725Z,2.75
2023-05-06T05:12:13.945Z,3.25
2023-05-06T05:15:15.804Z,3.33
2023-05-06T05:18:18.794Z,3.35
2023-05-06T05:21:21.123Z,3.30
2023-05-06T05:24:23.896Z,2.97
2023-05-06T05:27:27.483Z,3.08
2023-05-06T05:30:29.928Z,3.17
2023-05-06T05:33:31.901Z,3.58
2023-05-06T05:36:33.750Z,3.35
2023-05-06T05:39:35.915Z,3.50
2023-05-06T05:42:39.467Z,3.30
2023-05-06T05:45:41.395Z,2.97
2023-05-06T05:48:43.837Z,3.35
2023-05-06T05:51:45.735Z,4.28
2023-05-06T05:54:47.732Z,3.13
2023-05-06T05:57:51.211Z,3.20
2023-05-06T06:00:53.017Z,3.40
2023-05-06T06:03:56.603Z,4.68
2023-05-06T06:06:58.794Z,3.00
2023-05-06T06:10:00.858Z,3.28
2023-05-06T06:13:03.997Z,3.28
2023-05-06T06:16:06.477Z,3.20
2023-05-06T06:19:09.128Z,3.90
2023-05-06T06:22:11.040Z,3.35
2023-05-06T06:25:13.835Z,3.42
2023-05-06T06:28:17.005Z,3.70
2023-05-06T06:31:18.857Z,3.35
2023-05-06T06:34:21.789Z,3.58
2023-05-06T06:37:23.588Z,3.90
2023-05-06T06:40:25.422Z,3.83
2023-05-06T06:43:28.639Z,3.85
2023-05-06T06:46:30.438Z,3.45
2023-05-06T06:49:32.628Z,3.58
2023-05-06T06:52:34.699Z,3.80
2023-05-06T06:55:36.779Z,3.22
2023-05-06T06:58:40.186Z,4.85
2023-05-06T07:01:42.462Z,4.70
2023-05-06T07:04:44.687Z,3.75
2023-05-06T07:07:46.621Z,4.30
2023-05-06T07:10:48.503Z,4.35
2023-05-06T07:13:51.692Z,4.10
2023-05-06T07:16:53.525Z,3.83
2023-05-06T07:19:55.528Z,4.05
2023-05-06T07:22:57.335Z,3.53
2023-05-06T07:25:59.639Z,3.40
2023-05-06T07:29:04.351Z,3.80
2023-05-06T07:32:06.440Z,3.70
2023-05-06T07:35:09.548Z,4.05
2023-05-06T07:38:11.459Z,4.00
2023-05-06T07:41:13.280Z,4.22
2023-05-06T07:44:16.871Z,3.92
2023-05-06T07:47:27.229Z,4.07
2023-05-06T07:50:29.848Z,3.97
2023-05-06T07:53:31.734Z,3.80
2023-05-06T07:56:34.463Z,4.18
2023-05-06T07:59:37.731Z,4.45
2023-05-06T08:02:44.637Z,4.40
2023-05-06T08:05:46.800Z,4.88
2023-05-06T08:08:49.517Z,4.53
2023-05-06T08:11:51.486Z,4.50
2023-05-06T08:14:55.280Z,7.10
2023-05-06T08:18:02.170Z,5.18
2023-05-06T08:21:09.119Z,4.80
2023-05-06T08:24:11.211Z,5.13
2023-05-06T08:27:13.565Z,5.03
2023-05-06T08:30:17.038Z,4.60
2023-05-06T08:33:19.364Z,3.90
2023-05-06T08:36:22.585Z,6.00
2023-05-06T08:39:24.463Z,4.65
2023-05-06T08:42:26.910Z,4.38
2023-05-06T08:45:30.345Z,4.38
2023-05-06T08:48:32.374Z,5.05
2023-05-06T08:51:35.388Z,5.20
2023-05-06T08:54:38.302Z,4.93
2023-05-06T08:57:42.557Z,5.00
2023-05-06T09:00:46.637Z,5.35
2023-05-06T09:03:49.999Z,4.53
2023-05-06T09:06:52.454Z,6.60
2023-05-06T09:09:54.317Z,3.95
2023-05-06T09:12:57.075Z,4.97
2023-05-06T09:16:00.766Z,8.45
2023-05-06T09:19:02.894Z,3.92
2023-05-06T09:22:05.671Z,4.93
2023-05-06T09:25:08.270Z,4.45
2023-05-06T09:28:12.007Z,4.90
2023-05-06T09:31:16.180Z,3.97
2023-05-06T09:34:18.329Z,4.65
2023-05-06T09:37:21.136Z,5.05
2023-05-06T09:40:26.080Z,5.30
2023-05-06T09:43:28.589Z,4.68
2023-05-06T09:46:33.078Z,3.75
2023-05-06T09:49:35.046Z,4.72
2023-05-06T09:52:37.653Z,3.88
2023-05-06T09:55:40.828Z,3.63
2023-05-06T09:58:43.311Z,4.05
2023-05-06T10:01:47.344Z,3.67
2023-05-06T10:04:49.775Z,3.72
2023-05-06T10:07:54.708Z,3.50
2023-05-06T10:10:57.299Z,4.25
2023-05-06T10:14:00.298Z,4.25
2023-05-06T10:17:06.853Z,2.92
2023-05-06T10:20:13.340Z,2.97
2023-05-06T10:23:23.774Z,2.80
2023-05-06T10:26:29.829Z,2.97
2023-05-06T10:29:35.985Z,2.80
2023-05-06T10:32:43.235Z,2.58
2023-05-06T10:35:53.112Z,3.97
2023-05-06T10:38:57.268Z,2.65
2023-05-06T10:41:59.236Z,2.95
2023-05-06T10:45:06.441Z,2.55
2023-05-06T10:48:09.783Z,2.15
2023-05-06T10:51:25.894Z,2.53
2023-05-06T10:54:27.655Z,2.25
2023-05-06T10:57:40.911Z,2.42
2023-05-06T11:00:53.014Z,2.05
2023-05-06T11:03:56.904Z,2.85
2023-05-06T11:07:08.016Z,2.47
2023-05-06T11:10:12.160Z,2.13
2023-05-06T11:13:22.369Z,2.67
2023-05-06T11:16:49.693Z,2.25
2023-05-06T11:20:19.141Z,2.80
2023-05-06T11:23:21.024Z,2.40
2023-05-06T11:26:24.593Z,1.88
2023-05-06T11:29:26.986Z,2.30
2023-05-06T11:32:29.928Z,2.53
2023-05-06T11:35:36.713Z,2.17
2023-05-06T11:38:42.673Z,2.50
2023-05-06T11:41:45.061Z,2.17
2023-05-06T11:44:46.880Z,2.70
2023-05-06T11:47:49.004Z,3.00
2023-05-06T11:50:52.385Z,2.40
2023-05-06T11:54:05.148Z,2.85
2023-05-06T11:57:08.204Z,2.65
2023-05-06T12:00:12.084Z,2.45
2023-05-06T12:03:14.731Z,2.50
2023-05-06T12:06:19.246Z,2.17
2023-05-06T12:09:24.626Z,2.28
2023-05-06T12:12:28.177Z,3.78
2023-05-06T12:15:30.292Z,1.85
2023-05-06T12:18:33.492Z,2.22
2023-05-06T12:21:39.495Z,2.00
2023-05-06T12:24:41.537Z,2.17
2023-05-06T12:27:43.763Z,2.85
2023-05-06T12:30:46.531Z,2.25
2023-05-06T12:33:49.906Z,3.53
2023-05-06T12:36:54.024Z,2.65
2023-05-06T12:39:58.723Z,2.38
2023-05-06T12:43:01.408Z,2.42
2023-05-06T12:46:05.224Z,2.20
2023-05-06T12:49:07.104Z,2.22
2023-05-06T12:52:11.808Z,2.53
2023-05-06T12:55:13.674Z,2.45
2023-05-06T12:58:16.142Z,3.65
2023-05-06T13:01:22.097Z,2.17
2023-05-06T13:04:24.254Z,2.25
2023-05-06T13:07:28.247Z,2.35
2023-05-06T13:10:30.056Z,1.95
2023-05-06T13:13:31.866Z,2.45
2023-05-06T13:16:35.385Z,3.72
2023-05-06T13:19:37.412Z,2.90
2023-05-06T13:22:53.670Z,3.10
2023-05-06T13:26:04.189Z,4.13
2023-05-06T13:29:07.068Z,3.13
2023-05-06T13:32:09.821Z,3.63
2023-05-06T13:35:11.836Z,2.72
2023-05-06T13:38:16.096Z,3.55
2023-05-06T13:41:17.983Z,2.80
2023-05-06T13:44:21.724Z,2.90
2023-05-06T13:47:24.384Z,3.20
2023-05-06T13:50:26.307Z,2.47
2023-05-06T13:53:30.183Z,3.10
2023-05-06T13:56:32.389Z,3.83
2023-05-06T13:59:34.662Z,4.32
2023-05-06T14:02:37.480Z,3.70
2023-05-06T14:05:39.807Z,3.30
2023-05-06T14:08:43.112Z,3.45
2023-05-06T14:11:45.660Z,3.58
2023-05-06T14:14:47.435Z,3.80
2023-05-06T14:17:49.915Z,4.28
2023-05-06T14:20:51.677Z,4.35
2023-05-06T14:23:55.005Z,4.47
2023-05-06T14:26:56.754Z,5.28
2023-05-06T14:29:59.595Z,6.00
2023-05-06T14:33:01.513Z,6.95
2023-05-06T14:36:03.574Z,5.97
2023-05-06T14:39:07.636Z,6.28
2023-05-06T14:42:09.728Z,7.00
2023-05-06T14:45:12.925Z,7.03
2023-05-06T14:48:15.613Z,7.80
2023-05-06T14:51:17.474Z,5.47
2023-05-06T14:54:21.064Z,5.53
2023-05-06T14:57:23.993Z,7.35
2023-05-06T15:00:26.760Z,6.22
2023-05-06T15:03:28.588Z,7.60
2023-05-06T15:06:30.553Z,6.60
2023-05-06T15:09:33.949Z,5.70
2023-05-06T15:12:37.434Z,5.70
2023-05-06T15:15:39.574Z,5.65
2023-05-06T15:18:42.096Z,5.60
2023-05-06T15:21:44.130Z,5.80
2023-05-06T15:24:47.899Z,7.90
2023-05-06T15:27:49.783Z,5.95
2023-05-06T15:30:52.454Z,6.95
2023-05-06T15:33:54.325Z,5.38
2023-05-06T15:36:56.452Z,5.47
2023-05-06T15:39:59.813Z,5.38
2023-05-06T15:43:01.725Z,5.93
2023-05-06T15:46:04.463Z,5.70
2023-05-06T15:52:11.257Z,4.13
2023-05-06T15:55:15.321Z,4.10
2023-05-06T15:58:18.395Z,4.13
2023-05-06T16:01:23.803Z,4.05
2023-05-06T16:04:31.948Z,3.35
2023-05-06T16:07:34.409Z,3.92
2023-05-06T16:10:37.533Z,3.55
2023-05-06T16:13:39.587Z,3.30
2023-05-06T16:16:42.361Z,3.30
2023-05-06T16:19:44.211Z,3.67
2023-05-06T16:22:49.863Z,3.60
2023-05-06T16:25:54.839Z,4.53
2023-05-06T16:28:56.643Z,4.15
2023-05-06T16:31:59.356Z,3.90
2023-05-06T16:35:01.244Z,4.78
2023-05-06T16:38:03.135Z,4.30
2023-05-06T16:41:07.139Z,4.35
2023-05-06T16:44:08.916Z,5.10
2023-05-06T16:47:11.312Z,4.40
2023-05-06T16:50:14.123Z,5.20
2023-05-06T16:53:17.478Z,5.20
2023-05-06T16:56:20.871Z,4.82
2023-05-06T16:59:23.657Z,4.13
2023-05-06T17:02:25.978Z,5.03
2023-05-06T17:05:28.289Z,4.57
2023-05-06T17:11:36.589Z,5.97
2023-05-06T17:14:38.528Z,5.47
2023-05-06T17:17:41.486Z,4.50
2023-05-06T17:20:54.398Z,5.68
2023-05-06T17:23:58.393Z,5.10
2023-05-06T17:27:02.349Z,5.07
2023-05-06T17:30:06.718Z,4.75
2023-05-06T17:33:08.713Z,5.40
2023-05-06T17:36:12.230Z,4.50
2023-05-06T17:39:14.510Z,5.35
2023-05-06T17:42:17.816Z,5.25
2023-05-06T17:45:20.183Z,5.55
2023-05-06T17:48:21.982Z,5.68
2023-05-06T17:51:24.256Z,6.63
2023-05-06T17:54:26.117Z,5.80
2023-05-06T17:57:30.558Z,6.32
2023-05-06T18:00:32.451Z,5.68
2023-05-06T18:03:34.411Z,4.93
2023-05-06T18:06:37.098Z,4.68
2023-05-06T18:09:38.994Z,4.55
2023-05-06T18:12:45.321Z,4.60
2023-05-06T18:15:47.278Z,3.90
2023-05-06T18:18:50.077Z,3.92
2023-05-06T18:21:51.975Z,4.32
2023-05-06T18:24:55.334Z,4.47
2023-05-06T18:27:59.417Z,4.05
2023-05-06T18:31:01.404Z,4.65
2023-05-06T18:34:04.079Z,4.30
2023-05-06T18:37:06.240Z,4.47
2023-05-06T18:40:09.199Z,5.07
2023-05-06T18:43:13.295Z,4.00
2023-05-06T18:46:15.256Z,4.28
2023-05-06T18:49:18.063Z,5.47
2023-05-06T18:52:19.980Z,5.97
2023-05-06T18:55:22.040Z,5.00
2023-05-06T18:58:25.288Z,5.20
2023-05-06T19:01:28.260Z,5.65
2023-05-06T19:04:30.302Z,5.47
2023-05-06T19:07:32.374Z,5.50
2023-05-06T19:10:34.496Z,4.70
2023-05-06T19:13:37.745Z,5.43
2023-05-06T19:16:40.185Z,4.82
2023-05-06T19:19:42.182Z,5.90
2023-05-06T19:22:44.944Z,5.13
2023-05-06T19:25:46.907Z,5.53
2023-05-06T19:28:50.167Z,5.78
2023-05-06T19:31:52.122Z,5.70
2023-05-06T19:34:54.134Z,5.55
2023-05-06T19:37:57.031Z,4.75
2023-05-06T19:40:58.967Z,5.85
2023-05-06T19:44:02.290Z,5.57
2023-05-06T19:47:05.012Z,5.63
2023-05-06T19:50:08.411Z,5.43
2023-05-06T19:53:11.139Z,5.60
2023-05-06T19:56:14.399Z,5.93
2023-05-06T19:59:18.367Z,5.20
2023-05-06T20:02:20.631Z,5.70
2023-05-06T20:05:23.293Z,5.68
2023-05-06T20:08:25.184Z,4.85
2023-05-06T20:11:28.075Z,4.45
2023-05-06T20:14:31.426Z,4.22
2023-05-06T20:17:34.478Z,3.35
2023-05-06T20:20:39.925Z,4.55
2023-05-06T20:23:41.785Z,4.18
2023-05-06T20:26:43.905Z,4.35
2023-05-06T20:29:47.604Z,3.58
2023-05-06T20:32:51.894Z,4.72
2023-05-06T20:35:55.544Z,4.40
2023-05-06T20:38:57.857Z,5.13
2023-05-06T20:42:00.044Z,4.80
2023-05-06T20:45:04.352Z,4.50
2023-05-06T20:48:06.390Z,5.55
2023-05-06T20:51:08.655Z,4.93
2023-05-06T20:54:10.630Z,4.38
2023-05-06T20:57:13.880Z,4.38
2023-05-06T21:00:17.758Z,4.97
2023-05-06T21:03:19.738Z,4.50
2023-05-06T21:06:22.712Z,5.15
2023-05-06T21:09:25.013Z,5.20
2023-05-06T21:12:26.846Z,4.30
2023-05-06T21:15:30.457Z,3.35
2023-05-06T21:18:32.380Z,3.33
2023-05-06T21:21:34.829Z,3.38
2023-05-06T21:24:36.714Z,3.00
2023-05-06T21:27:38.576Z,2.95
2023-05-06T21:30:41.937Z,3.38
2023-05-06T21:33:43.769Z,3.60
2023-05-06T21:36:46.564Z,3.97
2023-05-06T21:39:48.408Z,3.50
2023-05-06T21:42:50.258Z,3.78
2023-05-06T21:45:53.957Z,3.75
2023-05-06T21:48:56.014Z,3.50
2023-05-06T21:51:58.508Z,3.10
2023-05-06T21:55:00.589Z,3.60
2023-05-06T21:58:02.384Z,2.92
2023-05-06T22:01:06.175Z,3.30
2023-05-06T22:04:13.078Z,3.85
2023-05-06T22:07:16.630Z,3.67
2023-05-06T22:10:18.507Z,3.80
2023-05-06T22:13:20.929Z,2.67
2023-05-06T22:16:25.896Z,2.92
2023-05-06T22:19:28.122Z,2.65
2023-05-06T22:22:30.468Z,2.20
2023-05-06T22:25:32.233Z,3.08
2023-05-06T22:28:34.517Z,2.90
2023-05-06T22:31:37.751Z,2.90
2023-05-06T22:34:40.430Z,2.47
2023-05-06T22:37:42.298Z,3.00
2023-05-06T22:40:44.195Z,2.40
2023-05-06T22:43:46.490Z,2.78
2023-05-06T22:46:49.716Z,3.00
2023-05-06T22:49:52.398Z,3.72
2023-05-06T22:52:54.260Z,3.58
2023-05-06T22:55:56.086Z,2.97
2023-05-06T22:58:58.364Z,3.30
2023-05-06T23:02:02.015Z,3.40
2023-05-06T23:05:05.080Z,3.08
2023-05-06T23:08:06.967Z,3.50
2023-05-06T23:11:08.792Z,3.05
2023-05-06T23:14:10.689Z,2.85
2023-05-06T23:17:13.934Z,2.75
2023-05-06T23:20:17.259Z,2.90
2023-05-06T23:23:19.088Z,2.67
2023-05-06T23:26:21.368Z,2.65
2023-05-06T23:29:23.141Z,2.55
2023-05-06T23:32:26.565Z,3.85
2023-05-06T23:35:28.505Z,2.75
2023-05-06T23:38:30.365Z,2.67
2023-05-06T23:41:32.307Z,3.38
2023-05-06T23:44:34.083Z,3.10
2023-05-06T23:47:37.296Z,3.28
2023-05-06T23:50:39.172Z,3.17
2023-05-06T23:53:41.502Z,2.65
2023-05-06T23:56:43.339Z,2.25
2023-05-06T23:59:45.260Z,2.20
